Accueil
METAR-TAF:

METAR-TAF

Aéroports :

Aéroport de Lannion-Côte de Granit

Lannion, France

latitude: 48-45N, longitude: 003-28W, altitude: 89 m

Observation

Le bulletin a été fait il y a 33 minutes, à 02:30 UTC
Vent 4 kt de ouest
Température 11°C
Humidité 94%
Pression 1020 hPa
Visibilité 10 km ou plus
pas de nuages en-dessous de 1500 mètres et pas de cumulonimbus.

METAR: LFRO 170230Z AUTO 28004KT CAVOK 11/10 Q1020

Heure: 05:03 (03:03 UTC)

Prévision

Le bulletin a été fait il y a 16 heures et 3 minutes, à 11:00 UTC
Prévision valable du 16 à 12 UTC au 17 à 12 UTC
Vent 10 kt de ouest/sud-ouest
Visibilité: 4000 m
Nuages fragmentés à une hauteur de 800 ft
pluie, bruine
A partir de 16 à 1400 UTC
Vent 12 kt de nord-ouest
Visibilité 10 km ou plus
Nuages épars à une hauteur de 1800 ft
Nuages épars à une hauteur de 3000 ft

TAF: LFRO 161100Z 1612/1712 24010KT 4000 RADZ BKN008 FM161400 32012KT 9999 SCT018 SCT030

Observations et prévisions météorologiques de plus de 4000 aéroports (messages METAR et TAF).

Les stations disponibles sont représentées par des disques jaunes et rouges sur la carte.

Passer la souris dessus pour voir le nom de la station.

Cliquer dessus pour voir les observations et prévisions météorologiques.

Pour changer de carte: cliquez sur les boutons verts avec une croix noire pour zoomer, sur le bouton vert avec un tiret pour effectuer un zoom arrière, ou sur les flèches vertes pour les cartes adjacentes.


METAR-TAF: